METAR Data
IDs: Format: Raw Decoded Include TAF

Data at: 1816 UTC 16 Oct 2021

KEDC 161755Z AUTO 03011KT 10SM 20/04 A3035 RMK AO2
KEDC 161735Z AUTO 02013G17KT 10SM 20/05 A3036 RMK AO2
KEDC 161715Z AUTO 04011G21KT 10SM 20/03 A3036 RMK AO2
KEDC 161655Z AUTO 02012G19KT 10SM 20/04 A3037 RMK AO2
KEDC 161635Z AUTO 03012G18KT 10SM 20/04 A3037 RMK AO2
KEDC 161615Z AUTO 04012KT 10SM 19/05 A3037 RMK AO2
KEDC 161555Z AUTO 04010G17KT 10SM 19/07 A3037 RMK AO2
KEDC 161535Z AUTO 03010KT 10SM 18/08 A3037 RMK AO2
KEDC 161515Z AUTO 05010KT 10SM 18/08 A3037 RMK AO2
KEDC 161455Z AUTO 04011KT 10SM 17/07 A3037 RMK AO2
KEDC 161435Z AUTO 02009KT 10SM 17/07 A3036 RMK AO2
KEDC 161415Z AUTO 02010G16KT 10SM 15/07 A3035 RMK AO2
KEDC 161355Z AUTO 01011KT 10SM 15/07 A3035 RMK AO2
KEDC 161335Z AUTO 01009KT 10SM 14/07 A3034 RMK AO2
KEDC 161315Z AUTO 36008KT 10SM 13/07 A3033 RMK AO2
KEDC 161255Z AUTO 01007KT 10SM 13/07 A3033 RMK AO2
KEDC 161235Z AUTO 36009KT 10SM 12/07 A3032 RMK AO2
KEDC 161215Z AUTO 01008KT 10SM 12/07 A3031 RMK AO2
KEDC 161155Z AUTO 01009KT 10SM 12/07 A3031 RMK AO2
KEDC 161135Z AUTO 01010KT 10SM 13/07 A3030 RMK AO2
KEDC 161115Z AUTO 01010KT 10SM 13/07 A3029 RMK AO2
KEDC 161055Z AUTO 01009KT 10SM 13/07 A3028 RMK AO2
KEDC 161035Z AUTO 01010KT 10SM 13/07 A3027 RMK AO2
KEDC 161015Z AUTO 01011KT 10SM 14/07 A3027 RMK AO2
KEDC 160955Z AUTO 01011KT 10SM 14/07 A3026 RMK AO2
KEDC 160935Z AUTO 01011KT 10SM 14/07 A3026 RMK AO2
KEDC 160915Z AUTO 01011KT 10SM 14/07 A3026 RMK AO2
KEDC 160855Z AUTO 01011KT 10SM 14/07 A3025 RMK AO2
KEDC 160835Z AUTO 01013KT 10SM 15/07 A3024 RMK AO2
KEDC 160815Z AUTO 01010KT 10SM 15/07 A3025 RMK AO2
KEDC 160755Z AUTO 36013KT 10SM 15/07 A3024 RMK AO2
KEDC 160735Z AUTO 01013KT 10SM 15/07 A3024 RMK AO2
KEDC 160715Z AUTO 01012KT 10SM 16/08 A3025 RMK AO2
KEDC 160655Z AUTO 02012KT 10SM 16/08 A3024 RMK AO2
KEDC 160635Z AUTO 01012G17KT 10SM 17/08 A3023 RMK AO2
KEDC 160615Z AUTO 01013G17KT 10SM 17/08 A3023 RMK AO2
KEDC 160555Z AUTO 01012G15KT 10SM 17/08 A3022 RMK AO2
KEDC 160535Z AUTO 01013KT 10SM 17/08 A3022 RMK AO2
KEDC 160515Z AUTO 01013KT 10SM 18/08 A3022 RMK AO2
KEDC 160455Z AUTO 01012G18KT 10SM 18/08 A3022 RMK AO2
KEDC 160435Z AUTO 01013KT 10SM 18/09 A3022 RMK AO2
KEDC 160415Z AUTO 01014G21KT 10SM 18/09 A3020 RMK AO2
KEDC 160355Z AUTO 01016G19KT 10SM 19/10 A3019 RMK AO2
KEDC 160335Z AUTO 02013KT 10SM 19/10 A3018 RMK AO2
KEDC 160315Z AUTO 01013KT 10SM 19/11 A3017 RMK AO2
KEDC 160255Z AUTO 36014KT 10SM 20/11 A3015 RMK AO2
KEDC 160235Z AUTO 01012KT 10SM 20/12 A3013 RMK AO2
KEDC 160215Z AUTO 01012KT 10SM 20/12 A3012 RMK AO2
KEDC 160155Z AUTO 01014G17KT 10SM 20/13 A3012 RMK AO2
KEDC 160135Z AUTO 02009KT 10SM 21/13 A3011 RMK AO2
KEDC 160115Z AUTO 01011G18KT 10SM 22/13 A3010 RMK AO2
KEDC 160055Z AUTO 01011KT 10SM 22/13 A3009 RMK AO2
KEDC 160035Z AUTO 01009KT 10SM 22/14 A3007 RMK AO2
KEDC 160015Z AUTO 36014G19KT 10SM 23/13 A3006 RMK AO2
KEDC 152355Z AUTO 36013G21KT 10SM 23/13 A3006 RMK AO2
KEDC 152315Z AUTO 36013G18KT 10SM 24/14 A3004 RMK AO2
KEDC 152255Z AUTO 36015G19KT 10SM 24/15 A3003 RMK AO2
KEDC 152235Z AUTO 36018G23KT 10SM 25/14 A3002 RMK AO2
KEDC 152215Z AUTO 36016G23KT 10SM 25/14 A3001 RMK AO2
KEDC 152155Z AUTO 36017G21KT 10SM 25/16 A3000 RMK AO2
KEDC 152135Z AUTO 36016G21KT 10SM 25/17 A3000 RMK AO2
KEDC 152115Z AUTO 36015G21KT 10SM 25/17 A2998 RMK AO2
KEDC 152055Z AUTO 36015G23KT 10SM 26/17 A2998 RMK AO2
KEDC 152035Z AUTO 36016G23KT 10SM 27/17 A2998 RMK AO2
KEDC 152015Z AUTO 36017G20KT 10SM 28/19 A2997 RMK AO2
KEDC 151955Z AUTO 36014G19KT 10SM 27/20 A2996 RMK AO2
KEDC 151935Z AUTO 01020G27KT 10SM 28/21 A2995 RMK AO2
KEDC 151915Z AUTO 34008KT 10SM 30/22 A2995 RMK AO2
KEDC 151855Z AUTO 31008KT 10SM 30/22 A2996 RMK AO2
KEDC 151835Z AUTO 29007KT 10SM 30/23 A2996 RMK AO2
KEDC 151815Z AUTO 32007KT 10SM 29/22 A2997 RMK AO2
KEDC 151755Z AUTO 30006KT 10SM 29/22 A2998 RMK AO2
KEDC 151735Z AUTO 28009KT 10SM 29/22 A2998 RMK AO2
KEDC 151715Z AUTO 28007KT 10SM 29/23 A2999 RMK AO2
KEDC 151655Z AUTO 27009KT 10SM 28/22 A2999 RMK AO2
KEDC 151635Z AUTO 26006KT 10SM 29/24 A2999 RMK AO2
KEDC 151615Z AUTO 27008KT 10SM 28/24 A2999 RMK AO2
KEDC 151555Z AUTO 28005KT 9SM 28/24 A2998 RMK AO2
KEDC 151535Z AUTO 26006KT 8SM 27/25 A2998 RMK AO2
KEDC 151515Z AUTO 26004KT 7SM 25/24 A2998 RMK AO2
KEDC 151455Z AUTO 27003KT 5SM BR 24/24 A2997 RMK AO2
KEDC 151435Z AUTO 26003KT 5SM BR 24/24 A2996 RMK AO2
KEDC 151415Z AUTO 26003KT 3SM BR 23/23 A2995 RMK AO2
KEDC 151355Z AUTO 21003KT 3SM BR 23/23 A2994 RMK AO2
KEDC 151335Z AUTO 00000KT 3SM BR 22/22 A2994 RMK AO2
KEDC 151315Z AUTO 00000KT 3SM BR 22/22 A2993 RMK AO2
KEDC 151255Z AUTO 28003KT 4SM BR 22/22 A2993 RMK AO2
KEDC 151235Z AUTO 32003KT 5SM BR 22/22 A2993 RMK AO2
KEDC 151215Z AUTO 00000KT 4SM BR 22/21 A2992 RMK AO2
KEDC 151155Z AUTO 00000KT 3SM BR 21/21 A2991 RMK AO2
KEDC 151135Z AUTO 20003KT 3SM BR 21/20 A2990 RMK AO2
KEDC 151115Z AUTO 00000KT 3SM BR 21/20 A2989 RMK AO2
KEDC 151055Z AUTO 00000KT 3SM BR 21/21 A2988 RMK AO2
KEDC 151035Z AUTO 00000KT 2 1/2SM BR 20/20 A2988 RMK AO2
KEDC 151015Z AUTO 00000KT 3SM BR 20/20 A2988 RMK AO2
KEDC 150955Z AUTO 23003KT 1 3/4SM BR 20/20 A2988 RMK AO2
KEDC 150935Z AUTO 23003KT 1 1/2SM BR 20/20 A2987 RMK AO2
KEDC 150915Z AUTO 27003KT 3/4SM BR 20/20 A2987 RMK AO2
KEDC 150855Z AUTO 23003KT 1/2SM FG 20/20 A2987 RMK AO2
KEDC 150835Z AUTO 00000KT 1/4SM FG 20/20 A2987 RMK AO2
KEDC 150815Z AUTO 21003KT 1 1/4SM BR 20/20 A2987 RMK AO2
KEDC 150755Z AUTO 22003KT 1/4SM FG 20/20 A2987 RMK AO2
KEDC 150735Z AUTO 00000KT 3/4SM BR 20/20 A2987 RMK AO2
KEDC 150715Z AUTO 00000KT 3/4SM BR 20/20 A2987 RMK AO2
KEDC 150655Z AUTO 00000KT 1 3/4SM BR 20/20 A2987 RMK AO2
KEDC 150635Z AUTO 00000KT 1/2SM FG 20/20 A2987 RMK AO2